createdAt,value
2023-01-28T00:00:43.394Z,0
2023-01-28T00:02:51.146Z,0
2023-01-28T00:03:55.283Z,0
2023-01-28T00:06:01.650Z,0
2023-01-28T00:08:08.157Z,0
2023-01-28T00:10:13.427Z,0
2023-01-28T00:11:16.916Z,0
2023-01-28T00:13:22.571Z,0
2023-01-28T00:15:28.341Z,0
2023-01-28T00:17:35.505Z,0
2023-01-28T00:18:39.463Z,0
2023-01-28T00:20:45.399Z,0
2023-01-28T00:22:54.439Z,0
2023-01-28T00:25:01.862Z,0
2023-01-28T00:26:06.330Z,0
2023-01-28T00:28:14.097Z,0
2023-01-28T00:30:20.579Z,0
2023-01-28T00:32:27.392Z,0
2023-01-28T00:33:30.842Z,0
2023-01-28T00:35:38.280Z,0
2023-01-28T00:37:43.920Z,0
2023-01-28T00:38:47.046Z,0
2023-01-28T00:40:53.299Z,0
2023-01-28T00:43:00.855Z,0
2023-01-28T00:45:06.855Z,0
2023-01-28T00:46:10.499Z,0
2023-01-28T00:48:17.583Z,0
2023-01-28T00:50:25.294Z,0
2023-01-28T00:52:31.054Z,0
2023-01-28T00:53:34.487Z,0
2023-01-28T00:55:41.055Z,0
2023-01-28T00:57:46.740Z,0
2023-01-28T00:59:53.538Z,0
2023-01-28T01:00:56.810Z,0
2023-01-28T01:03:02.935Z,0
2023-01-28T01:05:09.192Z,0
2023-01-28T01:06:12.059Z,0
2023-01-28T01:07:15.460Z,0
2023-01-28T01:08:18.965Z,0
2023-01-28T01:10:26.447Z,0
2023-01-28T01:12:31.830Z,0
2023-01-28T01:13:35.223Z,0
2023-01-28T01:15:42.186Z,0
2023-01-28T01:17:48.130Z,0
2023-01-28T01:18:51.486Z,0
2023-01-28T01:19:55.144Z,0
2023-01-28T01:20:57.874Z,0
2023-01-28T01:23:03.468Z,0
2023-01-28T01:25:10.638Z,0
2023-01-28T01:26:14.023Z,0
2023-01-28T01:28:20.419Z,0
2023-01-28T01:30:26.005Z,0
2023-01-28T01:32:31.594Z,0
2023-01-28T01:33:35.253Z,0
2023-01-28T01:35:41.374Z,0
2023-01-28T01:37:47.912Z,0
2023-01-28T01:39:53.949Z,0
2023-01-28T01:40:57.309Z,0
2023-01-28T01:43:04.142Z,0
2023-01-28T01:45:09.707Z,0
2023-01-28T01:46:13.452Z,0
2023-01-28T01:48:20.004Z,0
2023-01-28T01:49:22.777Z,0
2023-01-28T01:50:26.436Z,0
2023-01-28T01:51:29.741Z,0
2023-01-28T01:53:36.437Z,0
2023-01-28T01:54:39.522Z,0
2023-01-28T01:56:45.229Z,0
2023-01-28T01:58:52.109Z,0
2023-01-28T01:59:55.482Z,0
2023-01-28T02:00:58.774Z,0
2023-01-28T02:02:03.240Z,0
2023-01-28T02:04:09.904Z,0
2023-01-28T02:06:18.303Z,0
2023-01-28T02:08:24.998Z,0
2023-01-28T02:09:28.638Z,0
2023-01-28T02:11:35.764Z,0
2023-01-28T02:13:41.483Z,0
2023-01-28T02:14:44.866Z,0
2023-01-28T02:16:51.652Z,0
2023-01-28T02:18:57.230Z,0
2023-01-28T02:21:03.196Z,0
2023-01-28T02:22:05.971Z,0
2023-01-28T02:24:12.288Z,0
2023-01-28T02:25:18.198Z,0
2023-01-28T02:27:24.686Z,0
2023-01-28T02:28:27.405Z,0
2023-01-28T02:30:34.353Z,0
2023-01-28T02:32:41.638Z,0
2023-01-28T02:33:44.775Z,0
2023-01-28T02:35:51.536Z,0
2023-01-28T02:37:58.316Z,0
2023-01-28T02:39:01.155Z,0
2023-01-28T02:41:08.081Z,0
2023-01-28T02:42:11.150Z,0
2023-01-28T02:43:14.237Z,0
2023-01-28T02:44:16.956Z,0
2023-01-28T02:46:23.624Z,0
2023-01-28T02:48:29.635Z,0
2023-01-28T02:49:33.051Z,0
2023-01-28T02:51:39.761Z,0
2023-01-28T02:52:42.183Z,0
2023-01-28T02:53:44.994Z,0
2023-01-28T02:54:48.028Z,0
2023-01-28T02:55:51.707Z,0
2023-01-28T02:57:57.488Z,0
2023-01-28T03:00:03.525Z,0
2023-01-28T03:01:06.329Z,0
2023-01-28T03:03:12.646Z,0
2023-01-28T03:05:19.028Z,0
2023-01-28T03:06:21.728Z,0
2023-01-28T03:08:28.543Z,0
2023-01-28T03:10:34.530Z,0
2023-01-28T03:11:37.882Z,0
2023-01-28T03:13:44.407Z,0
2023-01-28T03:15:50.818Z,0
2023-01-28T03:16:54.318Z,0
2023-01-28T03:19:00.256Z,0
2023-01-28T03:21:07.139Z,0
2023-01-28T03:23:13.936Z,0
2023-01-28T03:24:17.520Z,0
2023-01-28T03:26:23.382Z,0
2023-01-28T03:28:30.823Z,0
2023-01-28T03:30:36.656Z,0
2023-01-28T03:31:40.433Z,0
2023-01-28T03:33:46.701Z,0
2023-01-28T03:35:52.907Z,0
2023-01-28T03:37:59.456Z,0
2023-01-28T03:39:02.502Z,0
2023-01-28T03:41:08.461Z,0
2023-01-28T03:43:15.593Z,0
2023-01-28T03:44:18.975Z,0
2023-01-28T03:46:25.870Z,0
2023-01-28T03:48:32.781Z,0
2023-01-28T03:50:38.560Z,0
2023-01-28T03:51:42.306Z,0
2023-01-28T03:52:45.742Z,0
2023-01-28T03:53:48.534Z,0
2023-01-28T03:55:55.352Z,0
2023-01-28T03:56:59.001Z,0
2023-01-28T03:58:02.408Z,0
2023-01-28T03:59:05.712Z,0
2023-01-28T04:01:12.492Z,0
2023-01-28T04:02:15.821Z,0
2023-01-28T04:03:19.198Z,0
2023-01-28T04:04:22.591Z,0
2023-01-28T04:06:29.351Z,0
2023-01-28T04:08:36.195Z,0
2023-01-28T04:09:39.480Z,0
2023-01-28T04:11:45.037Z,0
2023-01-28T04:13:51.269Z,0
2023-01-28T04:15:57.756Z,0
2023-01-28T04:17:00.805Z,0
2023-01-28T04:19:07.115Z,0
2023-01-28T04:21:13.380Z,0
2023-01-28T04:23:20.830Z,0
2023-01-28T04:24:24.570Z,0
2023-01-28T04:26:30.275Z,0
2023-01-28T04:28:36.454Z,0
2023-01-28T04:30:42.666Z,0
2023-01-28T04:31:46.849Z,0
2023-01-28T04:33:52.907Z,0
2023-01-28T04:35:58.545Z,0
2023-01-28T04:38:04.397Z,0
2023-01-28T04:39:07.496Z,0
2023-01-28T04:41:14.484Z,0
2023-01-28T04:43:20.392Z,0
2023-01-28T04:45:26.523Z,0
2023-01-28T04:46:30.184Z,0
2023-01-28T04:48:35.694Z,0
2023-01-28T04:50:41.501Z,0
2023-01-28T04:52:48.206Z,0
2023-01-28T04:53:51.267Z,0
2023-01-28T04:55:58.061Z,0
2023-01-28T04:58:04.943Z,0
2023-01-28T05:00:11.729Z,0
2023-01-28T05:01:15.315Z,0
2023-01-28T05:02:19.119Z,0
2023-01-28T05:03:22.509Z,0
2023-01-28T05:05:28.431Z,0
2023-01-28T05:06:31.433Z,0
2023-01-28T05:07:34.275Z,0
2023-01-28T05:08:37.113Z,0
2023-01-28T05:10:43.687Z,0
2023-01-28T05:12:50.251Z,0
2023-01-28T05:13:53.343Z,0
2023-01-28T05:15:59.280Z,0
2023-01-28T05:18:06.580Z,0
2023-01-28T05:20:14.047Z,0
2023-01-28T05:21:17.087Z,0
2023-01-28T05:23:24.152Z,0
2023-01-28T05:25:31.487Z,0
2023-01-28T05:27:36.911Z,0
2023-01-28T05:28:39.660Z,0
2023-01-28T05:30:45.194Z,0
2023-01-28T05:32:52.280Z,0
2023-01-28T05:34:59.767Z,0
2023-01-28T05:36:02.997Z,0
2023-01-28T05:38:09.822Z,0
2023-01-28T05:40:19.024Z,0
2023-01-28T05:42:26.655Z,0
2023-01-28T05:43:30.047Z,0
2023-01-28T05:44:32.764Z,0
2023-01-28T05:45:36.499Z,0
2023-01-28T05:47:47.327Z,0
2023-01-28T05:49:54.270Z,0
2023-01-28T05:50:57.080Z,0
2023-01-28T05:53:03.239Z,0
2023-01-28T05:55:09.172Z,0
2023-01-28T05:57:15.597Z,0
2023-01-28T05:58:19.672Z,0
2023-01-28T06:00:26.619Z,0
2023-01-28T06:02:33.008Z,0
2023-01-28T06:04:39.416Z,0
2023-01-28T06:05:42.230Z,0
2023-01-28T06:07:47.835Z,0
2023-01-28T06:09:54.957Z,0
2023-01-28T06:12:00.735Z,0
2023-01-28T06:13:03.483Z,0
2023-01-28T06:15:09.932Z,0
2023-01-28T06:17:16.785Z,0
2023-01-28T06:19:22.546Z,0
2023-01-28T06:20:25.617Z,0
2023-01-28T06:22:35.724Z,0
2023-01-28T06:24:42.095Z,0
2023-01-28T06:26:49.000Z,0
2023-01-28T06:27:52.137Z,0
2023-01-28T06:28:55.271Z,0
2023-01-28T06:29:58.472Z,0
2023-01-28T06:32:04.829Z,0
2023-01-28T06:33:07.570Z,0
2023-01-28T06:34:10.422Z,0
2023-01-28T06:35:13.771Z,0
2023-01-28T06:37:20.319Z,0
2023-01-28T06:38:23.981Z,0
2023-01-28T06:39:27.708Z,0
2023-01-28T06:40:30.760Z,0
2023-01-28T06:42:37.345Z,0
2023-01-28T06:43:40.547Z,0
2023-01-28T06:44:43.535Z,0
2023-01-28T06:45:46.960Z,0
2023-01-28T06:47:53.750Z,0
2023-01-28T06:50:00.490Z,1
2023-01-28T06:51:03.234Z,1
2023-01-28T06:53:10.137Z,1
2023-01-28T06:55:16.762Z,1
2023-01-28T06:57:23.221Z,2
2023-01-28T06:58:25.779Z,2
2023-01-28T07:00:31.955Z,2
2023-01-28T07:02:37.915Z,3
2023-01-28T07:04:44.704Z,3
2023-01-28T07:05:48.068Z,3
2023-01-28T07:07:54.921Z,4
2023-01-28T07:10:01.347Z,4
2023-01-28T07:12:08.252Z,5
2023-01-28T07:13:10.972Z,5
2023-01-28T07:15:17.768Z,6
2023-01-28T07:17:24.083Z,7
2023-01-28T07:19:31.502Z,8
2023-01-28T07:20:34.111Z,8
2023-01-28T07:22:40.942Z,9
2023-01-28T07:24:47.269Z,10
2023-01-28T07:26:54.636Z,12
2023-01-28T07:27:58.129Z,13
2023-01-28T07:30:04.380Z,16
2023-01-28T07:32:11.123Z,17
2023-01-28T07:34:18.340Z,16
2023-01-28T07:35:21.337Z,16
2023-01-28T07:36:23.870Z,17
2023-01-28T07:37:27.605Z,18
2023-01-28T07:39:33.780Z,19
2023-01-28T07:40:36.615Z,20
2023-01-28T07:41:40.350Z,22
2023-01-28T07:42:44.347Z,24
2023-01-28T07:44:51.097Z,25
2023-01-28T07:46:57.366Z,26
2023-01-28T07:48:00.433Z,28
2023-01-28T07:49:03.548Z,31
2023-01-28T07:50:07.350Z,34
2023-01-28T07:52:13.206Z,37
2023-01-28T07:53:16.923Z,38
2023-01-28T07:54:20.300Z,39
2023-01-28T07:55:24.028Z,40
2023-01-28T07:57:31.227Z,44
2023-01-28T07:59:38.151Z,41
2023-01-28T08:00:40.987Z,39
2023-01-28T08:02:49.081Z,41
2023-01-28T08:04:56.847Z,43
2023-01-28T08:07:03.405Z,42
2023-01-28T08:08:06.116Z,40
2023-01-28T08:10:14.299Z,40
2023-01-28T08:12:20.966Z,49
2023-01-28T08:14:27.028Z,53
2023-01-28T08:15:32.235Z,57
2023-01-28T08:17:38.767Z,57
2023-01-28T08:19:45.835Z,50
2023-01-28T08:21:52.372Z,45
2023-01-28T08:22:56.020Z,44
2023-01-28T08:25:02.771Z,43
2023-01-28T08:27:09.291Z,39
2023-01-28T08:28:12.615Z,37
2023-01-28T08:29:15.680Z,35
2023-01-28T08:30:19.875Z,34
2023-01-28T08:32:27.014Z,32
2023-01-28T08:34:33.635Z,28
2023-01-28T08:35:37.460Z,26
2023-01-28T08:37:43.332Z,24
2023-01-28T08:39:49.761Z,23
2023-01-28T08:41:55.589Z,22
2023-01-28T08:42:58.978Z,23
2023-01-28T08:45:05.864Z,26
2023-01-28T08:47:12.004Z,28
2023-01-28T08:49:19.083Z,30
2023-01-28T08:50:22.783Z,28
2023-01-28T08:52:29.529Z,24
2023-01-28T08:54:36.388Z,22
2023-01-28T08:55:39.860Z,22
2023-01-28T08:56:43.119Z,22
2023-01-28T08:57:46.485Z,22
2023-01-28T08:59:53.354Z,21
2023-01-28T09:01:59.730Z,25
2023-01-28T09:03:07.777Z,30
2023-01-28T09:05:14.067Z,28
2023-01-28T09:07:20.559Z,36
2023-01-28T09:09:30.213Z,44
2023-01-28T09:10:33.140Z,42
2023-01-28T09:12:38.990Z,41
2023-01-28T09:14:45.231Z,40
2023-01-28T09:16:52.249Z,39
2023-01-28T09:17:55.307Z,39
2023-01-28T09:20:01.639Z,38
2023-01-28T09:22:08.404Z,38
2023-01-28T09:24:15.072Z,40
2023-01-28T09:25:18.806Z,41
2023-01-28T09:27:25.311Z,45
2023-01-28T09:29:32.090Z,48
2023-01-28T09:31:43.918Z,54
2023-01-28T09:32:47.301Z,50
2023-01-28T09:33:50.603Z,47
2023-01-28T09:34:53.983Z,47
2023-01-28T09:37:00.776Z,49
2023-01-28T09:38:04.453Z,47
2023-01-28T09:39:07.834Z,48
2023-01-28T09:40:10.856Z,53
2023-01-28T09:42:17.035Z,54
2023-01-28T09:43:20.156Z,56
2023-01-28T09:45:25.718Z,59
2023-01-28T09:47:32.366Z,66
2023-01-28T09:48:35.158Z,65
2023-01-28T09:49:38.154Z,63
2023-01-28T09:50:41.628Z,61
2023-01-28T09:52:47.939Z,59
2023-01-28T09:53:52.503Z,59
2023-01-28T09:55:58.708Z,57
2023-01-28T09:58:05.251Z,55
2023-01-28T09:59:07.984Z,54
2023-01-28T10:01:13.571Z,51
2023-01-28T10:03:19.868Z,48
2023-01-28T10:04:22.946Z,48
2023-01-28T10:06:29.623Z,52
2023-01-28T10:08:35.923Z,55
2023-01-28T10:09:38.923Z,53
2023-01-28T10:11:45.021Z,51
2023-01-28T10:13:52.223Z,58
2023-01-28T10:14:55.071Z,61
2023-01-28T10:17:00.992Z,72
2023-01-28T10:18:20.154Z,74
2023-01-28T10:19:23.340Z,74
2023-01-28T10:20:26.987Z,66
2023-01-28T10:22:33.767Z,53
2023-01-28T10:24:40.894Z,47
2023-01-28T10:25:43.632Z,46
2023-01-28T10:27:50.287Z,51
2023-01-28T10:29:56.512Z,63
2023-01-28T10:32:02.807Z,69
2023-01-28T10:33:06.246Z,75
2023-01-28T10:35:12.456Z,89
2023-01-28T10:37:18.989Z,107
2023-01-28T10:38:22.514Z,114
2023-01-28T10:40:29.698Z,138
2023-01-28T10:42:35.250Z,162
2023-01-28T10:44:42.468Z,153
2023-01-28T10:45:46.116Z,149
2023-01-28T10:47:53.327Z,128
2023-01-28T10:48:56.448Z,113
2023-01-28T10:51:02.953Z,104
2023-01-28T10:53:09.430Z,108
2023-01-28T10:54:12.829Z,110
2023-01-28T10:56:19.133Z,111
2023-01-28T10:58:26.412Z,110
2023-01-28T10:59:29.718Z,104
2023-01-28T11:01:36.147Z,105
2023-01-28T11:03:42.983Z,101
2023-01-28T11:04:46.063Z,102
2023-01-28T11:05:49.086Z,107
2023-01-28T11:06:52.166Z,101
2023-01-28T11:09:02.100Z,84
2023-01-28T11:11:08.583Z,80
2023-01-28T11:12:11.671Z,83
2023-01-28T11:14:18.139Z,89
2023-01-28T11:16:24.254Z,88
2023-01-28T11:17:28.137Z,87
2023-01-28T11:18:31.386Z,101
2023-01-28T11:19:34.705Z,123
2023-01-28T11:21:41.183Z,176
2023-01-28T11:22:44.579Z,212
2023-01-28T11:23:47.934Z,446
2023-01-28T11:24:51.331Z,193
2023-01-28T11:26:58.095Z,173
2023-01-28T11:28:01.402Z,524
2023-01-28T11:30:07.242Z,305
2023-01-28T11:32:14.658Z,450
2023-01-28T11:33:18.439Z,218
2023-01-28T11:35:25.327Z,182
2023-01-28T11:37:31.757Z,192
2023-01-28T11:38:34.820Z,236
2023-01-28T11:40:41.205Z,602
2023-01-28T11:42:48.297Z,687
2023-01-28T11:43:50.836Z,659
2023-01-28T11:45:58.249Z,395
2023-01-28T11:48:05.691Z,220
2023-01-28T11:49:08.738Z,198
2023-01-28T11:51:14.929Z,163
2023-01-28T11:52:18.016Z,180
2023-01-28T11:54:24.371Z,480
2023-01-28T11:56:31.511Z,389
2023-01-28T11:57:34.899Z,433
2023-01-28T11:59:41.019Z,346
2023-01-28T12:01:48.150Z,442
2023-01-28T12:02:52.473Z,540
2023-01-28T12:04:59.530Z,568
2023-01-28T12:07:05.736Z,602
2023-01-28T12:08:08.465Z,634
2023-01-28T12:10:17.783Z,585
2023-01-28T12:12:23.745Z,706
2023-01-28T12:13:27.151Z,465
2023-01-28T12:15:33.457Z,258
2023-01-28T12:17:39.688Z,207
2023-01-28T12:18:43.065Z,213
2023-01-28T12:20:50.000Z,308
2023-01-28T12:21:53.175Z,429
2023-01-28T12:22:58.958Z,515
2023-01-28T12:24:02.961Z,595
2023-01-28T12:26:09.595Z,566
2023-01-28T12:27:13.334Z,565
2023-01-28T12:29:20.089Z,598
2023-01-28T12:31:27.550Z,646
2023-01-28T12:32:31.007Z,689
2023-01-28T12:34:37.831Z,728
2023-01-28T12:36:44.624Z,711
2023-01-28T12:37:47.943Z,720
2023-01-28T12:39:54.655Z,708
2023-01-28T12:42:00.746Z,677
2023-01-28T12:43:03.806Z,655
2023-01-28T12:45:09.341Z,650
2023-01-28T12:47:14.899Z,666
2023-01-28T12:48:18.010Z,645
2023-01-28T12:50:24.550Z,700
2023-01-28T12:52:31.114Z,615
2023-01-28T12:53:33.567Z,576
2023-01-28T12:55:39.657Z,611
2023-01-28T12:56:43.189Z,525
2023-01-28T12:57:45.931Z,524
2023-01-28T12:58:49.361Z,570
2023-01-28T13:00:55.191Z,610
2023-01-28T13:01:59.112Z,557
2023-01-28T13:04:05.268Z,533
2023-01-28T13:06:13.085Z,447
2023-01-28T13:07:15.643Z,517
2023-01-28T13:09:21.524Z,468
2023-01-28T13:11:28.235Z,444
2023-01-28T13:12:32.016Z,457
2023-01-28T13:14:38.593Z,319
2023-01-28T13:16:46.238Z,468
2023-01-28T13:17:49.630Z,378
2023-01-28T13:19:56.249Z,276
2023-01-28T13:22:02.997Z,237
2023-01-28T13:24:09.774Z,267
2023-01-28T13:25:14.859Z,189
2023-01-28T13:27:22.483Z,212
2023-01-28T13:29:28.683Z,221
2023-01-28T13:30:32.292Z,228
2023-01-28T13:31:36.007Z,200
2023-01-28T13:32:39.692Z,234
2023-01-28T13:34:47.583Z,249
2023-01-28T13:36:54.701Z,276
2023-01-28T13:37:58.867Z,255
2023-01-28T13:40:06.085Z,247
2023-01-28T13:42:11.891Z,235
2023-01-28T13:43:15.173Z,257
2023-01-28T13:45:22.189Z,224
2023-01-28T13:47:29.259Z,86
2023-01-28T13:48:32.991Z,144
2023-01-28T13:50:40.429Z,150
2023-01-28T13:52:46.929Z,121
2023-01-28T13:53:50.218Z,129
2023-01-28T13:55:56.252Z,116
2023-01-28T13:58:02.308Z,101
2023-01-28T13:59:06.071Z,84
2023-01-28T14:01:12.370Z,77
2023-01-28T14:02:16.122Z,78
2023-01-28T14:04:23.088Z,66
2023-01-28T14:05:26.193Z,72
2023-01-28T14:06:29.306Z,66
2023-01-28T14:07:32.996Z,62
2023-01-28T14:08:36.011Z,63
2023-01-28T14:09:39.410Z,60
2023-01-28T14:10:42.930Z,60
2023-01-28T14:11:45.985Z,58
2023-01-28T14:12:49.324Z,58
2023-01-28T14:13:52.729Z,57
2023-01-28T14:16:00.326Z,56
2023-01-28T14:17:04.282Z,56
2023-01-28T14:19:11.397Z,55
2023-01-28T14:20:16.704Z,55
2023-01-28T14:21:19.901Z,56
2023-01-28T14:22:23.259Z,59
2023-01-28T14:24:30.115Z,58
2023-01-28T14:25:33.501Z,58
2023-01-28T14:27:39.801Z,54
2023-01-28T14:28:42.442Z,54
2023-01-28T14:30:50.430Z,48
2023-01-28T14:32:58.263Z,46
2023-01-28T14:34:02.000Z,45
2023-01-28T14:36:09.192Z,43
2023-01-28T14:38:15.579Z,42
2023-01-28T14:39:19.312Z,42
2023-01-28T14:40:21.999Z,41
2023-01-28T14:41:25.617Z,40
2023-01-28T14:43:32.465Z,39
2023-01-28T14:44:35.531Z,38
2023-01-28T14:45:38.624Z,37
2023-01-28T14:46:42.695Z,36
2023-01-28T14:48:49.719Z,35
2023-01-28T14:49:53.757Z,35
2023-01-28T14:52:00.266Z,33
2023-01-28T14:53:03.403Z,33
2023-01-28T14:55:10.734Z,32
2023-01-28T14:56:13.240Z,31
2023-01-28T14:58:20.148Z,30
2023-01-28T15:00:26.953Z,30
2023-01-28T15:02:34.012Z,29
2023-01-28T15:03:37.572Z,28
2023-01-28T15:05:44.030Z,26
2023-01-28T15:07:50.679Z,25
2023-01-28T15:08:53.727Z,24
2023-01-28T15:11:01.269Z,23
2023-01-28T15:13:09.664Z,23
2023-01-28T15:14:13.134Z,23
2023-01-28T15:16:22.243Z,21
2023-01-28T15:18:28.679Z,17
2023-01-28T15:19:32.742Z,15
2023-01-28T15:20:36.522Z,13
2023-01-28T15:21:40.236Z,12
2023-01-28T15:23:47.109Z,10
2023-01-28T15:24:50.237Z,9
2023-01-28T15:25:53.604Z,8
2023-01-28T15:26:57.382Z,7
2023-01-28T15:29:03.058Z,6
2023-01-28T15:30:06.369Z,5
2023-01-28T15:32:13.819Z,4
2023-01-28T15:34:19.933Z,3
2023-01-28T15:35:22.953Z,3
2023-01-28T15:37:29.520Z,3
2023-01-28T15:39:36.460Z,2
2023-01-28T15:40:39.446Z,2
2023-01-28T15:41:42.486Z,2
2023-01-28T15:42:45.779Z,2
2023-01-28T15:44:52.724Z,2
2023-01-28T15:45:56.098Z,1
2023-01-28T15:48:02.489Z,1
2023-01-28T15:50:09.716Z,1
2023-01-28T15:51:13.114Z,1
2023-01-28T15:52:15.881Z,1
2023-01-28T15:53:19.532Z,1
2023-01-28T15:55:25.824Z,1
2023-01-28T15:56:28.826Z,1
2023-01-28T15:58:35.588Z,1
2023-01-28T16:00:43.057Z,1
2023-01-28T16:02:50.134Z,0
2023-01-28T16:03:53.546Z,0
2023-01-28T16:05:59.433Z,0
2023-01-28T16:08:05.890Z,0
2023-01-28T16:09:09.701Z,0
2023-01-28T16:11:16.495Z,0
2023-01-28T16:13:23.327Z,0
2023-01-28T16:14:26.162Z,0
2023-01-28T16:16:33.420Z,0
2023-01-28T16:18:40.179Z,0
2023-01-28T16:19:43.566Z,0
2023-01-28T16:21:50.109Z,0
2023-01-28T16:23:56.907Z,0
2023-01-28T16:25:00.331Z,0
2023-01-28T16:27:06.794Z,0
2023-01-28T16:29:14.017Z,0
2023-01-28T16:30:17.103Z,0
2023-01-28T16:32:24.725Z,0
2023-01-28T16:34:31.897Z,0
2023-01-28T16:36:09.895Z,0
2023-01-28T16:37:13.795Z,0
2023-01-28T16:38:16.625Z,0
2023-01-28T16:39:20.036Z,0
2023-01-28T16:40:23.807Z,0
2023-01-28T16:42:30.036Z,0
2023-01-28T16:44:36.053Z,0
2023-01-28T16:45:40.080Z,0
2023-01-28T16:47:46.378Z,0
2023-01-28T16:48:50.280Z,0
2023-01-28T16:49:53.390Z,0
2023-01-28T16:50:57.382Z,0
2023-01-28T16:53:02.877Z,0
2023-01-28T16:55:09.696Z,0
2023-01-28T16:56:48.206Z,0
2023-01-28T16:57:51.835Z,0
2023-01-28T16:58:55.652Z,0
2023-01-28T16:59:59.290Z,0
2023-01-28T17:01:02.736Z,0
2023-01-28T17:03:08.997Z,0
2023-01-28T17:04:15.620Z,0
2023-01-28T17:05:20.618Z,0
2023-01-28T17:06:23.972Z,0
2023-01-28T17:08:30.394Z,0
2023-01-28T17:10:37.497Z,0
2023-01-28T17:11:41.868Z,0
2023-01-28T17:13:48.547Z,0
2023-01-28T17:15:54.932Z,0
2023-01-28T17:18:01.761Z,0
2023-01-28T17:19:05.274Z,0
2023-01-28T17:21:12.638Z,0
2023-01-28T17:23:18.745Z,0
2023-01-28T17:25:25.568Z,0
2023-01-28T17:26:28.949Z,0
2023-01-28T17:28:36.037Z,0
2023-01-28T17:30:43.671Z,0
2023-01-28T17:32:50.736Z,0
2023-01-28T17:33:54.108Z,0
2023-01-28T17:34:57.416Z,0
2023-01-28T17:36:00.819Z,0
2023-01-28T17:38:07.802Z,0
2023-01-28T17:39:11.265Z,0
2023-01-28T17:40:14.279Z,0
2023-01-28T17:41:17.358Z,0
2023-01-28T17:43:23.059Z,0
2023-01-28T17:44:26.702Z,0
2023-01-28T17:45:30.414Z,0
2023-01-28T17:46:33.972Z,0
2023-01-28T17:48:39.948Z,0
2023-01-28T17:50:46.470Z,0
2023-01-28T17:51:49.904Z,0
2023-01-28T17:53:56.624Z,0
2023-01-28T17:56:02.798Z,0
2023-01-28T17:58:09.827Z,0
2023-01-28T17:59:17.696Z,0
2023-01-28T18:01:24.868Z,0
2023-01-28T18:03:30.879Z,0
2023-01-28T18:05:36.786Z,0
2023-01-28T18:06:39.808Z,0
2023-01-28T18:08:46.515Z,0
2023-01-28T18:10:53.895Z,0
2023-01-28T18:13:00.113Z,0
2023-01-28T18:14:03.218Z,0
2023-01-28T18:15:06.670Z,0
2023-01-28T18:16:10.292Z,0
2023-01-28T18:18:17.546Z,0
2023-01-28T18:19:21.227Z,0
2023-01-28T18:20:25.003Z,0
2023-01-28T18:21:27.826Z,0
2023-01-28T18:23:34.725Z,0
2023-01-28T18:25:40.998Z,0
2023-01-28T18:26:44.378Z,0
2023-01-28T18:28:50.271Z,0
2023-01-28T18:30:56.696Z,0
2023-01-28T18:33:03.783Z,0
2023-01-28T18:34:06.779Z,0
2023-01-28T18:36:12.706Z,0
2023-01-28T18:38:18.702Z,0
2023-01-28T18:40:26.068Z,0
2023-01-28T18:41:29.513Z,0
2023-01-28T18:43:35.339Z,0
2023-01-28T18:45:41.829Z,0
2023-01-28T18:46:45.641Z,0
2023-01-28T18:47:48.903Z,0
2023-01-28T18:48:52.188Z,0
2023-01-28T18:50:59.153Z,0
2023-01-28T18:53:04.408Z,0
2023-01-28T18:54:16.277Z,0
2023-01-28T18:56:23.518Z,0
2023-01-28T18:58:30.141Z,0
2023-01-28T19:00:35.936Z,0
2023-01-28T19:01:39.891Z,0
2023-01-28T19:02:43.383Z,0
2023-01-28T19:03:46.480Z,0
2023-01-28T19:05:53.476Z,0
2023-01-28T19:06:56.919Z,0
2023-01-28T19:08:00.088Z,0
2023-01-28T19:09:02.894Z,0
2023-01-28T19:11:09.563Z,0
2023-01-28T19:12:12.427Z,0
2023-01-28T19:13:15.803Z,0
2023-01-28T19:14:18.547Z,0
2023-01-28T19:16:24.715Z,0
2023-01-28T19:18:32.008Z,0
2023-01-28T19:19:35.369Z,0
2023-01-28T19:21:41.555Z,0
2023-01-28T19:23:52.614Z,0
2023-01-28T19:25:59.315Z,0
2023-01-28T19:27:02.423Z,0
2023-01-28T19:29:08.037Z,0
2023-01-28T19:31:15.161Z,0
2023-01-28T19:33:21.842Z,0
2023-01-28T19:34:25.071Z,0
2023-01-28T19:36:31.683Z,0
2023-01-28T19:38:38.186Z,0
2023-01-28T19:40:44.905Z,0
2023-01-28T19:41:48.416Z,0
2023-01-28T19:42:51.845Z,0
2023-01-28T19:43:55.158Z,0
2023-01-28T19:46:01.774Z,0
2023-01-28T19:47:04.590Z,0
2023-01-28T19:48:08.064Z,0
2023-01-28T19:49:11.366Z,0
2023-01-28T19:51:17.356Z,0
2023-01-28T19:52:20.744Z,0
2023-01-28T19:53:24.463Z,0
2023-01-28T19:54:27.762Z,0
2023-01-28T19:56:34.294Z,0
2023-01-28T19:58:41.224Z,0
2023-01-28T19:59:44.669Z,0
2023-01-28T20:01:51.540Z,0
2023-01-28T20:03:57.895Z,0
2023-01-28T20:06:07.143Z,0
2023-01-28T20:07:10.331Z,0
2023-01-28T20:09:16.787Z,0
2023-01-28T20:11:23.673Z,0
2023-01-28T20:13:29.776Z,0
2023-01-28T20:14:33.142Z,0
2023-01-28T20:16:40.117Z,0
2023-01-28T20:18:46.756Z,0
2023-01-28T20:20:53.868Z,0
2023-01-28T20:21:57.571Z,0
2023-01-28T20:24:03.736Z,0
2023-01-28T20:26:10.155Z,0
2023-01-28T20:28:16.930Z,0
2023-01-28T20:29:20.257Z,0
2023-01-28T20:31:28.551Z,0
2023-01-28T20:33:34.531Z,0
2023-01-28T20:34:37.937Z,0
2023-01-28T20:35:41.049Z,0
2023-01-28T20:36:44.154Z,0
2023-01-28T20:38:51.346Z,0
2023-01-28T20:39:55.097Z,0
2023-01-28T20:40:59.132Z,0
2023-01-28T20:42:02.772Z,0
2023-01-28T20:44:08.442Z,0
2023-01-28T20:46:15.818Z,0
2023-01-28T20:47:18.072Z,0
2023-01-28T20:49:25.562Z,0
2023-01-28T20:51:37.339Z,0
2023-01-28T20:53:44.776Z,0
2023-01-28T20:54:47.906Z,0
2023-01-28T20:56:53.703Z,0
2023-01-28T20:59:00.280Z,0
2023-01-28T21:01:06.399Z,0
2023-01-28T21:02:09.871Z,0
2023-01-28T21:03:13.508Z,0
2023-01-28T21:04:16.880Z,0
2023-01-28T21:06:22.773Z,0
2023-01-28T21:07:26.488Z,0
2023-01-28T21:08:28.689Z,0
2023-01-28T21:09:31.815Z,0
2023-01-28T21:11:37.987Z,0
2023-01-28T21:12:41.043Z,0
2023-01-28T21:13:44.336Z,0
2023-01-28T21:14:47.617Z,0
2023-01-28T21:16:54.952Z,0
2023-01-28T21:17:58.703Z,0
2023-01-28T21:19:02.088Z,0
2023-01-28T21:20:04.911Z,0
2023-01-28T21:22:11.466Z,0
2023-01-28T21:24:17.996Z,0
2023-01-28T21:25:21.464Z,0
2023-01-28T21:27:28.382Z,0
2023-01-28T21:29:34.687Z,0
2023-01-28T21:31:41.477Z,0
2023-01-28T21:32:44.786Z,0
2023-01-28T21:34:52.037Z,0
2023-01-28T21:36:57.918Z,0
2023-01-28T21:39:04.983Z,0
2023-01-28T21:40:08.174Z,0
2023-01-28T21:42:14.364Z,0
2023-01-28T21:44:19.932Z,0
2023-01-28T21:46:26.393Z,0
2023-01-28T21:47:28.926Z,0
2023-01-28T21:49:35.629Z,0
2023-01-28T21:51:42.336Z,0
2023-01-28T21:53:49.140Z,0
2023-01-28T21:54:53.188Z,0
2023-01-28T21:57:00.624Z,0
2023-01-28T21:59:06.614Z,0
2023-01-28T22:01:13.477Z,0
2023-01-28T22:02:16.904Z,0
2023-01-28T22:04:22.572Z,0
2023-01-28T22:06:28.238Z,0
2023-01-28T22:08:34.177Z,0
2023-01-28T22:09:37.822Z,0
2023-01-28T22:11:43.991Z,0
2023-01-28T22:13:50.901Z,0
2023-01-28T22:15:57.173Z,0
2023-01-28T22:17:00.508Z,0
2023-01-28T22:19:06.360Z,0
2023-01-28T22:21:14.185Z,0
2023-01-28T22:23:20.171Z,0
2023-01-28T22:24:23.671Z,0
2023-01-28T22:26:30.345Z,0
2023-01-28T22:28:37.107Z,0
2023-01-28T22:30:43.902Z,0
2023-01-28T22:31:47.130Z,0
2023-01-28T22:32:50.186Z,0
2023-01-28T22:33:53.393Z,0
2023-01-28T22:36:00.316Z,0
2023-01-28T22:37:03.189Z,0
2023-01-28T22:38:06.520Z,0
2023-01-28T22:39:09.818Z,0
2023-01-28T22:41:15.419Z,0
2023-01-28T22:42:18.707Z,0
2023-01-28T22:43:22.006Z,0
2023-01-28T22:44:25.377Z,0
2023-01-28T22:46:34.570Z,0
2023-01-28T22:48:41.640Z,0
2023-01-28T22:49:44.935Z,0
2023-01-28T22:51:50.759Z,0
2023-01-28T22:53:57.864Z,0
2023-01-28T22:56:04.418Z,0
2023-01-28T22:57:07.142Z,0
2023-01-28T22:59:13.892Z,0
2023-01-28T23:01:22.275Z,0
2023-01-28T23:02:25.896Z,0
2023-01-28T23:03:28.974Z,0
2023-01-28T23:04:32.722Z,0
2023-01-28T23:06:39.038Z,0
2023-01-28T23:08:45.180Z,0
2023-01-28T23:09:48.457Z,0
2023-01-28T23:11:55.207Z,0
2023-01-28T23:14:01.665Z,0
2023-01-28T23:16:08.763Z,0
2023-01-28T23:17:12.311Z,0
2023-01-28T23:19:19.280Z,0
2023-01-28T23:21:25.497Z,0
2023-01-28T23:23:32.250Z,0
2023-01-28T23:24:35.769Z,0
2023-01-28T23:26:41.867Z,0
2023-01-28T23:28:48.601Z,0
2023-01-28T23:30:56.039Z,0
2023-01-28T23:32:00.387Z,0
2023-01-28T23:34:06.301Z,0
2023-01-28T23:36:12.445Z,0
2023-01-28T23:38:18.864Z,0
2023-01-28T23:39:22.252Z,0
2023-01-28T23:41:28.419Z,0
2023-01-28T23:43:33.921Z,0
2023-01-28T23:44:37.770Z,0
2023-01-28T23:45:41.728Z,0
2023-01-28T23:46:44.800Z,0
2023-01-28T23:48:51.439Z,0
2023-01-28T23:50:57.326Z,0
2023-01-28T23:52:00.641Z,0
2023-01-28T23:53:04.125Z,0
2023-01-28T23:54:07.492Z,0
2023-01-28T23:56:15.569Z,0
2023-01-28T23:58:45.389Z,0
